Time;durP1;ratioP1;P1;durP2;ratioP2;P2;SDS_P1;SDS_P2;PMS_P1;PMS_P2;Temp;Humidity;BMP_temperature;BMP_pressure;BME280_temperature;BME280_humidity;BME280_pressure;Samples;Min_cycle;Max_cycle;Signal;HPM_P1;HPM_P2
2023/01/23 00:08:13;;;;;;;25.23;9.20;;;;;;;2.66;100.00;101379.28;31392200;28;20486;-76
2023/01/23 00:23:15;;;;;;;16.67;8.00;;;;;;;2.57;100.00;101413.47;31485459;28;20497;-78
2023/01/23 00:38:17;;;;;;;21.33;9.00;;;;;;;2.52;100.00;101435.91;31464112;28;20050;-79
2023/01/23 00:53:20;;;;;;;18.13;6.93;;;;;;;2.58;100.00;101461.41;31504679;28;20055;-78
2023/01/23 01:08:22;;;;;;;19.10;7.80;;;;;;;2.56;100.00;101466.31;31471171;28;20044;-79
2023/01/23 01:23:24;;;;;;;16.37;6.43;;;;;;;2.47;100.00;101462.13;31464082;28;20490;-80
2023/01/23 01:38:27;;;;;;;16.50;6.53;;;;;;;2.72;100.00;101474.50;31483437;28;20052;-80
2023/01/23 01:53:31;;;;;;;17.13;7.00;;;;;;;2.73;100.00;101458.09;31454862;28;20044;-79
2023/01/23 02:08:56;;;;;;;23.53;7.43;;;;;;;2.94;100.00;101484.81;31450565;28;20041;-77
2023/01/23 02:24:25;;;;;;;22.13;8.93;;;;;;;3.30;100.00;101515.53;31415140;28;20118;-77
2023/01/23 02:39:26;;;;;;;37.27;11.73;;;;;;;3.48;100.00;101514.19;31421714;28;20048;-77
2023/01/23 02:54:29;;;;;;;47.73;23.93;;;;;;;3.15;100.00;101537.63;31447643;28;20052;-79
2023/01/23 03:09:31;;;;;;;47.70;15.97;;;;;;;3.25;100.00;101547.94;31466397;28;20465;-78
2023/01/23 03:24:33;;;;;;;24.27;10.40;;;;;;;2.96;100.00;101546.19;31459894;28;20064;-78
2023/01/23 03:54:56;;;;;;;21.30;7.67;;;;;;;3.14;100.00;101557.53;31474371;28;20111;-74
2023/01/23 04:09:58;;;;;;;8.53;5.27;;;;;;;2.88;100.00;101534.44;31509542;28;20109;-75
2023/01/23 04:25:00;;;;;;;10.73;5.63;;;;;;;2.62;100.00;101531.22;31473972;28;20083;-76
2023/01/23 04:40:02;;;;;;;18.53;6.80;;;;;;;2.40;100.00;101518.94;31478038;28;20048;-75
2023/01/23 04:55:05;;;;;;;23.33;7.60;;;;;;;2.61;100.00;101540.38;31489873;28;20056;-74
2023/01/23 05:10:07;;;;;;;21.87;7.53;;;;;;;2.46;100.00;101532.94;31458252;28;20049;-75
2023/01/23 05:25:09;;;;;;;21.10;7.83;;;;;;;2.13;100.00;101522.94;31492890;28;20055;-75
2023/01/23 05:40:12;;;;;;;19.87;6.83;;;;;;;1.71;100.00;101466.69;31498062;28;20547;-80
2023/01/23 05:55:14;;;;;;;21.80;8.33;;;;;;;1.70;100.00;101457.06;31422010;28;20041;-80
2023/01/23 06:10:16;;;;;;;22.07;8.93;;;;;;;2.05;100.00;101481.72;31444586;28;20044;-79
2023/01/23 10:51:49;;;;;;;16.57;7.17;;;;;;;2.34;100.00;101472.81;31688232;27;20390;-76
2023/01/23 11:07:07;;;;;;;17.17;8.00;;;;;;;2.37;100.00;101563.25;31648198;28;20059;-76
2023/01/23 11:22:35;;;;;;;19.60;8.03;;;;;;;2.73;100.00;101602.09;31629448;28;20501;-74
2023/01/23 11:37:39;;;;;;;14.93;7.73;;;;;;;2.72;100.00;101648.81;31649053;28;20121;-76
2023/01/23 11:52:44;;;;;;;17.47;10.20;;;;;;;2.58;100.00;101643.72;31535700;28;20098;-76
2023/01/23 12:07:46;;;;;;;11.07;6.37;;;;;;;2.46;100.00;101691.09;31549556;28;20074;-76
2023/01/23 12:22:55;;;;;;;11.73;6.53;;;;;;;2.66;100.00;101720.59;31515506;28;20053;-76
2023/01/23 12:37:57;;;;;;;22.90;7.20;;;;;;;2.37;100.00;101736.69;31582395;28;20517;-77
2023/01/23 12:53:06;;;;;;;12.80;7.27;;;;;;;2.70;100.00;101774.38;31549364;28;20047;-78
2023/01/23 13:08:26;;;;;;;16.07;6.43;;;;;;;2.65;100.00;101790.63;31535944;28;20113;-73
2023/01/23 13:23:32;;;;;;;15.90;6.13;;;;;;;2.59;100.00;101822.22;31573912;28;20053;-75
2023/01/23 13:38:36;;;;;;;37.17;17.47;;;;;;;2.71;100.00;101810.81;31588841;28;20060;-74
2023/01/23 14:09:29;;;;;;;11.07;6.00;;;;;;;2.54;100.00;101835.81;31064236;28;20618;-73
2023/01/23 18:45:14;;;;;;;18.27;10.93;;;;;;;3.56;100.00;101768.38;31309775;28;20960;-82
2023/01/23 19:00:30;;;;;;;;;;;;;;;3.81;100.00;101806.06;31184756;28;20050;-81
2023/01/23 19:15:55;;;;;;;31.80;12.10;;;;;;;3.78;100.00;101819.03;31180038;28;19922;-75
2023/01/23 19:30:57;;;;;;;33.83;14.97;;;;;;;3.72;100.00;101844.53;31192628;28;20053;-76
2023/01/23 19:46:01;;;;;;;29.40;14.77;;;;;;;3.78;100.00;101837.84;31119211;28;20061;-77
2023/01/23 20:01:27;;;;;;;19.50;9.90;;;;;;;3.85;100.00;101850.75;31098832;28;20103;-78
2023/01/23 20:16:29;;;;;;;29.00;13.07;;;;;;;3.83;100.00;101885.22;31152368;28;20089;-76
2023/01/23 20:31:31;;;;;;;27.13;13.97;;;;;;;3.75;100.00;101878.81;31102397;28;20738;-77
2023/01/23 20:46:34;;;;;;;35.13;13.60;;;;;;;3.74;100.00;101896.03;31083239;28;20077;-76
2023/01/23 21:16:59;;;;;;;21.00;9.93;;;;;;;4.05;100.00;101908.25;31118565;28;20356;-76
2023/01/23 21:32:01;;;;;;;19.00;8.93;;;;;;;3.93;100.00;101911.69;31089031;28;20058;-78
2023/01/23 21:47:03;;;;;;;19.57;8.80;;;;;;;3.87;100.00;101906.84;31087736;28;20491;-76
2023/01/23 22:02:05;;;;;;;20.33;8.30;;;;;;;3.82;100.00;101901.66;31080820;28;20092;-78
2023/01/23 22:17:07;;;;;;;15.63;8.13;;;;;;;3.76;100.00;101901.88;31075496;28;20045;-78
2023/01/23 22:32:09;;;;;;;15.03;6.43;;;;;;;3.56;100.00;101886.53;31077747;28;20101;-76
2023/01/23 22:47:11;;;;;;;19.40;7.07;;;;;;;3.61;100.00;101886.31;31068415;28;20050;-76
2023/01/23 23:02:17;;;;;;;14.23;6.83;;;;;;;3.80;100.00;101890.44;31080072;28;20786;-80
2023/01/23 23:17:22;;;;;;;15.47;6.97;;;;;;;3.76;100.00;101880.38;31080531;28;20046;-76
2023/01/23 23:32:24;;;;;;;15.40;6.33;;;;;;;3.76;100.00;101896.50;31088698;28;20058;-76
2023/01/23 23:47:27;;;;;;;16.17;6.43;;;;;;;3.57;100.00;101882.72;31075926;28;21318;-76
